Terminal Aerodrome Forecast
Issued by NWS San Angelo, TX

Current Version | Previous Version | Text Only | Print | Product List | Glossary Off
Versions: 1 2 3 4 5 6 7 8 9 10 11 12 13 14 15 16 17 18 19 20 21 22

251
FTUS44 KSJT 291913 AAB
TAFABI
TAF AMD
KABI 291913Z 2919/3018 33014G20KT P6SM OVC010
     FM292300 34018G28KT P6SM VCSH BKN035 BKN250
     FM300500 31015KT P6SM SCT250
     FM301500 31014G20KT P6SM SKC=

USA.gov is the U.S. government's official web portal to all federal, state and local government web resources and services.